sensor_id;sensor_type;location;lat;lon;timestamp;pressure;altitude;pressure_sealevel;temperature
18782;BMP180;9519;51.890;8.970;2022-10-17T00:00:03;99609.00;;;13.40
18782;BMP180;9519;51.890;8.970;2022-10-17T00:05:05;99610.00;;;13.40
18782;BMP180;9519;51.890;8.970;2022-10-17T00:10:09;99603.00;;;13.30
18782;BMP180;9519;51.890;8.970;2022-10-17T00:15:16;99602.00;;;13.40
18782;BMP180;9519;51.890;8.970;2022-10-17T00:20:19;99589.00;;;13.40
18782;BMP180;9519;51.890;8.970;2022-10-17T00:25:22;99604.00;;;13.40
18782;BMP180;9519;51.890;8.970;2022-10-17T00:30:24;99778.00;;;13.40
18782;BMP180;9519;51.890;8.970;2022-10-17T00:35:27;99788.00;;;13.40
18782;BMP180;9519;51.890;8.970;2022-10-17T00:40:30;99782.00;;;13.40
18782;BMP180;9519;51.890;8.970;2022-10-17T00:45:32;99605.00;;;13.40
18782;BMP180;9519;51.890;8.970;2022-10-17T00:50:35;99770.00;;;13.40
18782;BMP180;9519;51.890;8.970;2022-10-17T00:55:47;99769.00;;;13.40
18782;BMP180;9519;51.890;8.970;2022-10-17T01:00:50;99767.00;;;13.50
18782;BMP180;9519;51.890;8.970;2022-10-17T01:05:52;99779.00;;;13.50
18782;BMP180;9519;51.890;8.970;2022-10-17T01:11:06;99771.00;;;13.60
18782;BMP180;9519;51.890;8.970;2022-10-17T01:16:18;99778.00;;;13.60
18782;BMP180;9519;51.890;8.970;2022-10-17T01:21:44;99768.00;;;13.70
18782;BMP180;9519;51.890;8.970;2022-10-17T01:27:18;99757.00;;;13.70
18782;BMP180;9519;51.890;8.970;2022-10-17T01:32:31;99765.00;;;13.70
18782;BMP180;9519;51.890;8.970;2022-10-17T01:37:44;99761.00;;;13.70
18782;BMP180;9519;51.890;8.970;2022-10-17T01:43:01;99759.00;;;13.80
18782;BMP180;9519;51.890;8.970;2022-10-17T01:48:12;99739.00;;;13.80
18782;BMP180;9519;51.890;8.970;2022-10-17T01:53:20;99744.00;;;13.80
18782;BMP180;9519;51.890;8.970;2022-10-17T01:58:30;99746.00;;;13.80
18782;BMP180;9519;51.890;8.970;2022-10-17T02:03:36;99730.00;;;13.80
18782;BMP180;9519;51.890;8.970;2022-10-17T02:08:42;99731.00;;;13.70
18782;BMP180;9519;51.890;8.970;2022-10-17T02:14:12;99718.00;;;13.80
18782;BMP180;9519;51.890;8.970;2022-10-17T02:19:38;99718.00;;;13.80
18782;BMP180;9519;51.890;8.970;2022-10-17T02:24:51;99697.00;;;13.80
18782;BMP180;9519;51.890;8.970;2022-10-17T02:30:02;99716.00;;;13.80
18782;BMP180;9519;51.890;8.970;2022-10-17T02:35:11;99720.00;;;13.70
18782;BMP180;9519;51.890;8.970;2022-10-17T02:40:18;99716.00;;;13.70
18782;BMP180;9519;51.890;8.970;2022-10-17T02:45:25;99707.00;;;13.80
18782;BMP180;9519;51.890;8.970;2022-10-17T02:50:40;99710.00;;;13.80
18782;BMP180;9519;51.890;8.970;2022-10-17T02:55:52;99695.00;;;13.80
18782;BMP180;9519;51.890;8.970;2022-10-17T03:00:55;99696.00;;;13.80
18782;BMP180;9519;51.890;8.970;2022-10-17T03:05:59;99700.00;;;13.80
18782;BMP180;9519;51.890;8.970;2022-10-17T03:11:02;99695.00;;;13.80
18782;BMP180;9519;51.890;8.970;2022-10-17T03:16:04;99709.00;;;13.80
18782;BMP180;9519;51.890;8.970;2022-10-17T03:21:08;99689.00;;;13.90
18782;BMP180;9519;51.890;8.970;2022-10-17T03:26:11;99686.00;;;13.90
18782;BMP180;9519;51.890;8.970;2022-10-17T03:31:15;99687.00;;;13.90
18782;BMP180;9519;51.890;8.970;2022-10-17T03:36:20;99693.00;;;13.90
18782;BMP180;9519;51.890;8.970;2022-10-17T03:41:22;99698.00;;;13.90
18782;BMP180;9519;51.890;8.970;2022-10-17T03:46:24;99703.00;;;13.90
18782;BMP180;9519;51.890;8.970;2022-10-17T03:51:27;99701.00;;;13.90
18782;BMP180;9519;51.890;8.970;2022-10-17T03:56:29;99706.00;;;14.00
18782;BMP180;9519;51.890;8.970;2022-10-17T04:01:31;99707.00;;;14.00
18782;BMP180;9519;51.890;8.970;2022-10-17T04:06:35;99712.00;;;14.00
18782;BMP180;9519;51.890;8.970;2022-10-17T04:11:37;99687.00;;;14.00
18782;BMP180;9519;51.890;8.970;2022-10-17T04:16:39;99714.00;;;14.00
18782;BMP180;9519;51.890;8.970;2022-10-17T04:21:43;99728.00;;;14.00
18782;BMP180;9519;51.890;8.970;2022-10-17T04:26:48;99727.00;;;14.00
18782;BMP180;9519;51.890;8.970;2022-10-17T04:31:50;99721.00;;;14.00
18782;BMP180;9519;51.890;8.970;2022-10-17T04:36:54;99709.00;;;14.00
18782;BMP180;9519;51.890;8.970;2022-10-17T04:41:56;99716.00;;;14.00
18782;BMP180;9519;51.890;8.970;2022-10-17T04:46:58;99708.00;;;14.00
18782;BMP180;9519;51.890;8.970;2022-10-17T04:52:01;99721.00;;;14.10
18782;BMP180;9519;51.890;8.970;2022-10-17T04:57:03;99721.00;;;14.10
18782;BMP180;9519;51.890;8.970;2022-10-17T05:02:06;99725.00;;;14.10
18782;BMP180;9519;51.890;8.970;2022-10-17T05:07:09;99722.00;;;14.00
18782;BMP180;9519;51.890;8.970;2022-10-17T05:12:11;99735.00;;;14.00
18782;BMP180;9519;51.890;8.970;2022-10-17T05:17:13;99724.00;;;14.00
18782;BMP180;9519;51.890;8.970;2022-10-17T05:22:17;99724.00;;;14.00
18782;BMP180;9519;51.890;8.970;2022-10-17T05:27:19;99725.00;;;14.00
18782;BMP180;9519;51.890;8.970;2022-10-17T05:32:21;99734.00;;;14.00
18782;BMP180;9519;51.890;8.970;2022-10-17T05:37:25;99733.00;;;14.00
18782;BMP180;9519;51.890;8.970;2022-10-17T05:42:31;99727.00;;;13.90
18782;BMP180;9519;51.890;8.970;2022-10-17T05:47:33;99736.00;;;13.90
18782;BMP180;9519;51.890;8.970;2022-10-17T05:52:36;99730.00;;;13.90
18782;BMP180;9519;51.890;8.970;2022-10-17T05:57:38;99726.00;;;13.90
18782;BMP180;9519;51.890;8.970;2022-10-17T06:02:41;99729.00;;;14.00
18782;BMP180;9519;51.890;8.970;2022-10-17T06:07:44;99737.00;;;14.00
18782;BMP180;9519;51.890;8.970;2022-10-17T06:12:46;99737.00;;;14.10
18782;BMP180;9519;51.890;8.970;2022-10-17T06:17:48;99735.00;;;14.10
18782;BMP180;9519;51.890;8.970;2022-10-17T06:22:52;99757.00;;;14.30
18782;BMP180;9519;51.890;8.970;2022-10-17T06:27:54;99758.00;;;14.30
18782;BMP180;9519;51.890;8.970;2022-10-17T06:32:56;99757.00;;;14.40
18782;BMP180;9519;51.890;8.970;2022-10-17T06:37:59;99765.00;;;14.40
18782;BMP180;9519;51.890;8.970;2022-10-17T06:43:01;99769.00;;;14.40
18782;BMP180;9519;51.890;8.970;2022-10-17T06:48:04;99768.00;;;14.50
18782;BMP180;9519;51.890;8.970;2022-10-17T06:53:08;99764.00;;;14.50
18782;BMP180;9519;51.890;8.970;2022-10-17T06:58:10;99756.00;;;14.60
18782;BMP180;9519;51.890;8.970;2022-10-17T07:03:12;99771.00;;;14.60
18782;BMP180;9519;51.890;8.970;2022-10-17T07:08:15;99788.00;;;14.60
18782;BMP180;9519;51.890;8.970;2022-10-17T07:13:18;99798.00;;;14.70
18782;BMP180;9519;51.890;8.970;2022-10-17T07:18:20;99801.00;;;14.70
18782;BMP180;9519;51.890;8.970;2022-10-17T07:23:24;99788.00;;;14.80
18782;BMP180;9519;51.890;8.970;2022-10-17T07:28:26;99801.00;;;14.80
18782;BMP180;9519;51.890;8.970;2022-10-17T07:33:28;99818.00;;;14.90
18782;BMP180;9519;51.890;8.970;2022-10-17T07:38:33;99812.00;;;15.00
18782;BMP180;9519;51.890;8.970;2022-10-17T07:43:36;99829.00;;;15.00
18782;BMP180;9519;51.890;8.970;2022-10-17T07:48:39;99823.00;;;15.10
18782;BMP180;9519;51.890;8.970;2022-10-17T07:53:42;99798.00;;;15.10
18782;BMP180;9519;51.890;8.970;2022-10-17T07:58:45;99822.00;;;15.20
18782;BMP180;9519;51.890;8.970;2022-10-17T08:03:47;99826.00;;;15.30
18782;BMP180;9519;51.890;8.970;2022-10-17T08:08:51;99827.00;;;15.40
18782;BMP180;9519;51.890;8.970;2022-10-17T08:13:53;99823.00;;;15.50
18782;BMP180;9519;51.890;8.970;2022-10-17T08:18:56;99822.00;;;15.70
18782;BMP180;9519;51.890;8.970;2022-10-17T08:23:59;99818.00;;;15.80
18782;BMP180;9519;51.890;8.970;2022-10-17T08:29:02;99801.00;;;15.90
18782;BMP180;9519;51.890;8.970;2022-10-17T08:34:04;99797.00;;;16.00
18782;BMP180;9519;51.890;8.970;2022-10-17T08:39:08;99790.00;;;16.10
18782;BMP180;9519;51.890;8.970;2022-10-17T08:44:22;99795.00;;;16.30
18782;BMP180;9519;51.890;8.970;2022-10-17T08:49:36;99778.00;;;16.40
18782;BMP180;9519;51.890;8.970;2022-10-17T08:54:44;99794.00;;;16.50
18782;BMP180;9519;51.890;8.970;2022-10-17T08:59:51;99809.00;;;16.70
18782;BMP180;9519;51.890;8.970;2022-10-17T09:05:34;99797.00;;;16.80
18782;BMP180;9519;51.890;8.970;2022-10-17T09:10:56;99800.00;;;16.90
18782;BMP180;9519;51.890;8.970;2022-10-17T09:16:14;99798.00;;;17.10
18782;BMP180;9519;51.890;8.970;2022-10-17T09:21:30;99795.00;;;17.20
18782;BMP180;9519;51.890;8.970;2022-10-17T09:26:37;99803.00;;;17.30
18782;BMP180;9519;51.890;8.970;2022-10-17T09:31:45;99795.00;;;17.40
18782;BMP180;9519;51.890;8.970;2022-10-17T09:36:48;99805.00;;;17.50
18782;BMP180;9519;51.890;8.970;2022-10-17T09:41:55;99804.00;;;17.60
18782;BMP180;9519;51.890;8.970;2022-10-17T09:47:21;99807.00;;;17.80
18782;BMP180;9519;51.890;8.970;2022-10-17T09:52:37;99817.00;;;17.90
18782;BMP180;9519;51.890;8.970;2022-10-17T09:57:54;99819.00;;;18.10
18782;BMP180;9519;51.890;8.970;2022-10-17T10:03:17;99812.00;;;18.20
18782;BMP180;9519;51.890;8.970;2022-10-17T10:08:20;99835.00;;;18.30
18782;BMP180;9519;51.890;8.970;2022-10-17T10:13:26;99824.00;;;18.40
18782;BMP180;9519;51.890;8.970;2022-10-17T10:18:33;99830.00;;;18.50
18782;BMP180;9519;51.890;8.970;2022-10-17T10:23:37;99842.00;;;18.60
18782;BMP180;9519;51.890;8.970;2022-10-17T10:28:53;99852.00;;;18.70
18782;BMP180;9519;51.890;8.970;2022-10-17T10:33:58;99829.00;;;18.80
18782;BMP180;9519;51.890;8.970;2022-10-17T10:39:13;99853.00;;;19.00
18782;BMP180;9519;51.890;8.970;2022-10-17T10:44:24;99876.00;;;19.10
18782;BMP180;9519;51.890;8.970;2022-10-17T10:49:29;99863.00;;;19.20
18782;BMP180;9519;51.890;8.970;2022-10-17T10:54:37;99858.00;;;19.30
18782;BMP180;9519;51.890;8.970;2022-10-17T10:59:57;99858.00;;;19.50
18782;BMP180;9519;51.890;8.970;2022-10-17T11:05:05;99855.00;;;19.60
18782;BMP180;9519;51.890;8.970;2022-10-17T11:10:18;99850.00;;;19.80
18782;BMP180;9519;51.890;8.970;2022-10-17T11:15:32;99823.00;;;20.00
18782;BMP180;9519;51.890;8.970;2022-10-17T11:20:53;99846.00;;;20.20
18782;BMP180;9519;51.890;8.970;2022-10-17T11:26:03;99812.00;;;20.50
18782;BMP180;9519;51.890;8.970;2022-10-17T11:31:12;99851.00;;;20.70
18782;BMP180;9519;51.890;8.970;2022-10-17T11:36:18;99880.00;;;21.00
18782;BMP180;9519;51.890;8.970;2022-10-17T11:41:41;99882.00;;;21.20
18782;BMP180;9519;51.890;8.970;2022-10-17T11:53:07;99913.00;;;21.60
18782;BMP180;9519;51.890;8.970;2022-10-17T11:58:30;99908.00;;;21.80
18782;BMP180;9519;51.890;8.970;2022-10-17T12:03:50;99926.00;;;22.00
18782;BMP180;9519;51.890;8.970;2022-10-17T12:15:29;99942.00;;;22.30
18782;BMP180;9519;51.890;8.970;2022-10-17T12:20:34;99954.00;;;22.20
18782;BMP180;9519;51.890;8.970;2022-10-17T12:25:49;99955.00;;;22.20
18782;BMP180;9519;51.890;8.970;2022-10-17T12:30:57;99960.00;;;22.10
18782;BMP180;9519;51.890;8.970;2022-10-17T12:36:36;99958.00;;;22.00
18782;BMP180;9519;51.890;8.970;2022-10-17T12:41:54;99977.00;;;21.90
18782;BMP180;9519;51.890;8.970;2022-10-17T12:47:35;99969.00;;;21.90
18782;BMP180;9519;51.890;8.970;2022-10-17T12:53:02;99963.00;;;21.80
18782;BMP180;9519;51.890;8.970;2022-10-17T12:58:14;99973.00;;;21.70
18782;BMP180;9519;51.890;8.970;2022-10-17T13:03:22;99976.00;;;21.60
18782;BMP180;9519;51.890;8.970;2022-10-17T13:08:29;99989.00;;;21.50
18782;BMP180;9519;51.890;8.970;2022-10-17T13:13:40;99993.00;;;21.50
18782;BMP180;9519;51.890;8.970;2022-10-17T13:18:52;100006.00;;;21.40
18782;BMP180;9519;51.890;8.970;2022-10-17T13:24:20;99990.00;;;21.40
18782;BMP180;9519;51.890;8.970;2022-10-17T13:29:23;99982.00;;;21.40
18782;BMP180;9519;51.890;8.970;2022-10-17T13:34:27;99991.00;;;21.30
18782;BMP180;9519;51.890;8.970;2022-10-17T13:39:35;99995.00;;;21.30
18782;BMP180;9519;51.890;8.970;2022-10-17T13:44:39;100015.00;;;21.30
18782;BMP180;9519;51.890;8.970;2022-10-17T13:56:01;100021.00;;;21.30
18782;BMP180;9519;51.890;8.970;2022-10-17T14:01:04;100017.00;;;21.30
18782;BMP180;9519;51.890;8.970;2022-10-17T14:06:17;100028.00;;;21.30
18782;BMP180;9519;51.890;8.970;2022-10-17T14:11:29;100034.00;;;21.20
18782;BMP180;9519;51.890;8.970;2022-10-17T14:16:36;100028.00;;;21.20
18782;BMP180;9519;51.890;8.970;2022-10-17T14:21:40;100021.00;;;21.20
18782;BMP180;9519;51.890;8.970;2022-10-17T14:26:49;100031.00;;;21.30
18782;BMP180;9519;51.890;8.970;2022-10-17T14:32:00;100047.00;;;21.30
18782;BMP180;9519;51.890;8.970;2022-10-17T14:37:27;100053.00;;;21.30
18782;BMP180;9519;51.890;8.970;2022-10-17T14:42:30;100062.00;;;21.20
18782;BMP180;9519;51.890;8.970;2022-10-17T14:47:33;100068.00;;;21.10
18782;BMP180;9519;51.890;8.970;2022-10-17T14:52:37;100076.00;;;21.00
18782;BMP180;9519;51.890;8.970;2022-10-17T14:57:43;100097.00;;;20.90
18782;BMP180;9519;51.890;8.970;2022-10-17T15:02:47;100089.00;;;20.80
18782;BMP180;9519;51.890;8.970;2022-10-17T15:07:50;100103.00;;;20.70
18782;BMP180;9519;51.890;8.970;2022-10-17T15:12:53;100103.00;;;20.60
18782;BMP180;9519;51.890;8.970;2022-10-17T15:17:55;100106.00;;;20.60
18782;BMP180;9519;51.890;8.970;2022-10-17T15:23:01;100106.00;;;20.60
18782;BMP180;9519;51.890;8.970;2022-10-17T15:28:03;100107.00;;;20.60
18782;BMP180;9519;51.890;8.970;2022-10-17T15:33:05;100106.00;;;20.50
18782;BMP180;9519;51.890;8.970;2022-10-17T15:38:11;100097.00;;;20.50
18782;BMP180;9519;51.890;8.970;2022-10-17T15:43:17;100110.00;;;20.50
18782;BMP180;9519;51.890;8.970;2022-10-17T15:48:28;100123.00;;;20.40
18782;BMP180;9519;51.890;8.970;2022-10-17T15:53:33;100124.00;;;20.40
18782;BMP180;9519;51.890;8.970;2022-10-17T15:58:38;100130.00;;;20.40
18782;BMP180;9519;51.890;8.970;2022-10-17T16:03:40;100145.00;;;20.30
18782;BMP180;9519;51.890;8.970;2022-10-17T16:08:49;100153.00;;;20.20
18782;BMP180;9519;51.890;8.970;2022-10-17T16:13:54;100171.00;;;20.10
18782;BMP180;9519;51.890;8.970;2022-10-17T16:18:57;100166.00;;;20.10
18782;BMP180;9519;51.890;8.970;2022-10-17T16:24:02;100170.00;;;20.00
18782;BMP180;9519;51.890;8.970;2022-10-17T16:29:04;100181.00;;;20.00
18782;BMP180;9519;51.890;8.970;2022-10-17T16:34:07;100184.00;;;19.90
18782;BMP180;9519;51.890;8.970;2022-10-17T16:39:10;100195.00;;;19.90
18782;BMP180;9519;51.890;8.970;2022-10-17T16:44:13;100195.00;;;19.80
18782;BMP180;9519;51.890;8.970;2022-10-17T16:49:16;100201.00;;;19.70
18782;BMP180;9519;51.890;8.970;2022-10-17T16:54:19;100197.00;;;19.70
18782;BMP180;9519;51.890;8.970;2022-10-17T16:59:22;100207.00;;;19.50
18782;BMP180;9519;51.890;8.970;2022-10-17T17:04:24;100219.00;;;19.50
18782;BMP180;9519;51.890;8.970;2022-10-17T17:09:28;100222.00;;;19.40
18782;BMP180;9519;51.890;8.970;2022-10-17T17:14:30;100245.00;;;19.30
18782;BMP180;9519;51.890;8.970;2022-10-17T17:19:32;100249.00;;;19.20
18782;BMP180;9519;51.890;8.970;2022-10-17T17:24:35;100252.00;;;19.00
18782;BMP180;9519;51.890;8.970;2022-10-17T17:29:37;100263.00;;;18.80
18782;BMP180;9519;51.890;8.970;2022-10-17T17:34:39;100271.00;;;18.60
18782;BMP180;9519;51.890;8.970;2022-10-17T17:39:43;100262.00;;;18.50
18782;BMP180;9519;51.890;8.970;2022-10-17T17:44:45;100272.00;;;18.30
18782;BMP180;9519;51.890;8.970;2022-10-17T17:49:48;100280.00;;;18.20
18782;BMP180;9519;51.890;8.970;2022-10-17T17:54:51;100275.00;;;18.10
18782;BMP180;9519;51.890;8.970;2022-10-17T17:59:53;100274.00;;;18.10
18782;BMP180;9519;51.890;8.970;2022-10-17T18:04:55;100268.00;;;18.00
18782;BMP180;9519;51.890;8.970;2022-10-17T18:09:59;100267.00;;;17.90
18782;BMP180;9519;51.890;8.970;2022-10-17T18:15:02;100266.00;;;17.80
18782;BMP180;9519;51.890;8.970;2022-10-17T18:20:05;100263.00;;;17.70
18782;BMP180;9519;51.890;8.970;2022-10-17T18:25:09;100259.00;;;17.60
18782;BMP180;9519;51.890;8.970;2022-10-17T18:30:14;100255.00;;;17.50
18782;BMP180;9519;51.890;8.970;2022-10-17T18:35:16;100252.00;;;17.50
18782;BMP180;9519;51.890;8.970;2022-10-17T18:40:20;100255.00;;;17.50
18782;BMP180;9519;51.890;8.970;2022-10-17T18:45:22;100269.00;;;17.40
18782;BMP180;9519;51.890;8.970;2022-10-17T18:50:24;100264.00;;;17.40
18782;BMP180;9519;51.890;8.970;2022-10-17T18:55:28;100271.00;;;17.40
18782;BMP180;9519;51.890;8.970;2022-10-17T19:00:31;100276.00;;;17.40
18782;BMP180;9519;51.890;8.970;2022-10-17T19:05:36;100288.00;;;17.40
18782;BMP180;9519;51.890;8.970;2022-10-17T19:10:41;100296.00;;;17.30
18782;BMP180;9519;51.890;8.970;2022-10-17T19:15:43;100288.00;;;17.30
18782;BMP180;9519;51.890;8.970;2022-10-17T19:20:45;100288.00;;;17.30
18782;BMP180;9519;51.890;8.970;2022-10-17T19:25:48;100296.00;;;17.30
18782;BMP180;9519;51.890;8.970;2022-10-17T19:30:51;100304.00;;;17.30
18782;BMP180;9519;51.890;8.970;2022-10-17T19:35:57;100307.00;;;17.30
18782;BMP180;9519;51.890;8.970;2022-10-17T19:41:05;100300.00;;;17.20
18782;BMP180;9519;51.890;8.970;2022-10-17T19:46:11;100295.00;;;17.20
18782;BMP180;9519;51.890;8.970;2022-10-17T19:51:16;100292.00;;;17.10
18782;BMP180;9519;51.890;8.970;2022-10-17T19:56:22;100295.00;;;17.10
18782;BMP180;9519;51.890;8.970;2022-10-17T20:01:28;100290.00;;;17.10
18782;BMP180;9519;51.890;8.970;2022-10-17T20:06:32;100292.00;;;17.10
18782;BMP180;9519;51.890;8.970;2022-10-17T20:11:36;100303.00;;;17.10
18782;BMP180;9519;51.890;8.970;2022-10-17T20:16:38;100300.00;;;17.10
18782;BMP180;9519;51.890;8.970;2022-10-17T20:21:42;100314.00;;;17.10
18782;BMP180;9519;51.890;8.970;2022-10-17T20:26:45;100313.00;;;17.10
18782;BMP180;9519;51.890;8.970;2022-10-17T20:31:48;100305.00;;;17.10
18782;BMP180;9519;51.890;8.970;2022-10-17T20:36:50;100318.00;;;17.10
18782;BMP180;9519;51.890;8.970;2022-10-17T20:41:53;100303.00;;;17.10
18782;BMP180;9519;51.890;8.970;2022-10-17T20:46:55;100325.00;;;17.10
18782;BMP180;9519;51.890;8.970;2022-10-17T20:51:58;100337.00;;;17.10
18782;BMP180;9519;51.890;8.970;2022-10-17T20:57:02;100353.00;;;17.00
18782;BMP180;9519;51.890;8.970;2022-10-17T21:02:05;100350.00;;;17.00
18782;BMP180;9519;51.890;8.970;2022-10-17T21:07:07;100356.00;;;17.00
18782;BMP180;9519;51.890;8.970;2022-10-17T21:12:11;100366.00;;;17.00
18782;BMP180;9519;51.890;8.970;2022-10-17T21:17:13;100368.00;;;17.00
18782;BMP180;9519;51.890;8.970;2022-10-17T21:22:15;100357.00;;;16.90
18782;BMP180;9519;51.890;8.970;2022-10-17T21:27:19;100362.00;;;16.90
18782;BMP180;9519;51.890;8.970;2022-10-17T21:32:21;100357.00;;;16.80
18782;BMP180;9519;51.890;8.970;2022-10-17T21:37:23;100358.00;;;16.80
18782;BMP180;9519;51.890;8.970;2022-10-17T21:42:26;100361.00;;;16.70
18782;BMP180;9519;51.890;8.970;2022-10-17T21:47:28;100357.00;;;16.70
18782;BMP180;9519;51.890;8.970;2022-10-17T21:52:30;100358.00;;;16.70
18782;BMP180;9519;51.890;8.970;2022-10-17T21:57:34;100352.00;;;16.60
18782;BMP180;9519;51.890;8.970;2022-10-17T22:02:36;100341.00;;;16.60
18782;BMP180;9519;51.890;8.970;2022-10-17T22:07:38;100363.00;;;16.50
18782;BMP180;9519;51.890;8.970;2022-10-17T22:12:41;100359.00;;;16.50
18782;BMP180;9519;51.890;8.970;2022-10-17T22:17:43;100363.00;;;16.50
18782;BMP180;9519;51.890;8.970;2022-10-17T22:22:45;100360.00;;;16.50
18782;BMP180;9519;51.890;8.970;2022-10-17T22:27:49;100363.00;;;16.50
18782;BMP180;9519;51.890;8.970;2022-10-17T22:32:51;100376.00;;;16.50
18782;BMP180;9519;51.890;8.970;2022-10-17T22:37:53;100392.00;;;16.60
18782;BMP180;9519;51.890;8.970;2022-10-17T22:42:56;100389.00;;;16.60
18782;BMP180;9519;51.890;8.970;2022-10-17T22:47:58;100380.00;;;16.60
18782;BMP180;9519;51.890;8.970;2022-10-17T22:53:00;100380.00;;;16.60
18782;BMP180;9519;51.890;8.970;2022-10-17T22:58:04;100394.00;;;16.60
18782;BMP180;9519;51.890;8.970;2022-10-17T23:03:06;100383.00;;;16.50
18782;BMP180;9519;51.890;8.970;2022-10-17T23:08:09;100397.00;;;16.50
18782;BMP180;9519;51.890;8.970;2022-10-17T23:13:15;100393.00;;;16.50
18782;BMP180;9519;51.890;8.970;2022-10-17T23:18:19;100397.00;;;16.50
18782;BMP180;9519;51.890;8.970;2022-10-17T23:23:23;100406.00;;;16.40
18782;BMP180;9519;51.890;8.970;2022-10-17T23:28:27;100400.00;;;16.40
18782;BMP180;9519;51.890;8.970;2022-10-17T23:33:29;100397.00;;;16.40
18782;BMP180;9519;51.890;8.970;2022-10-17T23:38:31;100395.00;;;16.40
18782;BMP180;9519;51.890;8.970;2022-10-17T23:43:35;100393.00;;;16.30
18782;BMP180;9519;51.890;8.970;2022-10-17T23:48:39;100397.00;;;16.40
18782;BMP180;9519;51.890;8.970;2022-10-17T23:53:41;100397.00;;;16.30
18782;BMP180;9519;51.890;8.970;2022-10-17T23:58:45;100402.00;;;16.30
